createdAt,value
2022-10-17T00:01:10.568Z,57.71
2022-10-17T00:03:39.829Z,57.67
2022-10-17T00:06:08.985Z,57.42
2022-10-17T00:08:37.619Z,57.34
2022-10-17T00:11:08.516Z,57.34
2022-10-17T00:13:36.956Z,57.39
2022-10-17T00:16:07.254Z,57.42
2022-10-17T00:18:35.414Z,57.48
2022-10-17T00:21:03.409Z,57.99
2022-10-17T00:23:31.408Z,58.06
2022-10-17T00:26:00.646Z,58.09
2022-10-17T00:28:28.877Z,57.86
2022-10-17T00:30:58.839Z,57.82
2022-10-17T00:33:28.676Z,57.80
2022-10-17T00:36:05.268Z,57.62
2022-10-17T00:38:33.506Z,57.80
2022-10-17T00:41:01.804Z,57.75
2022-10-17T00:43:30.739Z,57.71
2022-10-17T00:45:58.777Z,57.70
2022-10-17T00:48:28.209Z,57.73
2022-10-17T00:50:56.439Z,57.98
2022-10-17T00:53:24.473Z,58.22
2022-10-17T00:55:55.007Z,58.19
2022-10-17T00:58:23.093Z,58.12
2022-10-17T01:00:51.214Z,57.90
2022-10-17T01:03:19.257Z,57.86
2022-10-17T01:05:48.694Z,57.95
2022-10-17T01:08:16.893Z,58.24
2022-10-17T01:10:54.097Z,58.27
2022-10-17T01:13:26.753Z,58.38
2022-10-17T01:16:05.776Z,58.31
2022-10-17T01:18:54.327Z,58.30
2022-10-17T01:21:49.214Z,58.28
2022-10-17T01:24:48.221Z,58.32
2022-10-17T01:27:57.817Z,58.25
2022-10-17T01:31:04.343Z,58.35
2022-10-17T01:33:40.542Z,58.32
2022-10-17T01:36:14.015Z,58.29
2022-10-17T01:38:48.398Z,58.23
2022-10-17T01:41:23.937Z,58.18
2022-10-17T01:43:56.990Z,58.09
2022-10-17T01:46:31.300Z,57.96
2022-10-17T01:49:02.906Z,58.00
2022-10-17T01:51:37.086Z,58.00
2022-10-17T01:54:12.602Z,58.07
2022-10-17T01:56:42.414Z,58.11
2022-10-17T01:59:14.425Z,58.19
2022-10-17T02:01:46.356Z,58.16
2022-10-17T02:04:14.373Z,58.20
2022-10-17T02:06:44.158Z,58.26
2022-10-17T02:09:21.012Z,58.18
2022-10-17T02:11:59.701Z,58.13
2022-10-17T02:14:39.430Z,58.08
2022-10-17T02:17:19.405Z,58.07
2022-10-17T02:19:58.863Z,57.93
2022-10-17T02:22:39.242Z,58.07
2022-10-17T02:25:15.735Z,58.25
2022-10-17T02:27:51.781Z,58.32
2022-10-17T02:30:30.549Z,58.34
2022-10-17T02:33:04.563Z,58.40
2022-10-17T02:35:38.451Z,58.41
2022-10-17T02:38:09.227Z,58.59
2022-10-17T02:40:39.245Z,58.38
2022-10-17T02:43:08.038Z,58.56
2022-10-17T02:45:38.763Z,58.51
2022-10-17T02:48:13.306Z,58.51
2022-10-17T02:50:50.222Z,58.65
2022-10-17T02:53:26.732Z,58.91
2022-10-17T02:55:59.663Z,58.94
2022-10-17T02:58:34.169Z,59.03
2022-10-17T03:01:03.220Z,59.03
2022-10-17T03:03:33.779Z,58.99
2022-10-17T03:06:03.102Z,58.99
2022-10-17T03:08:31.204Z,59.01
2022-10-17T03:10:59.253Z,58.94
2022-10-17T03:13:29.017Z,58.82
2022-10-17T03:15:58.026Z,58.86
2022-10-17T03:18:26.185Z,59.12
2022-10-17T03:21:00.257Z,59.01
2022-10-17T03:23:28.338Z,59.22
2022-10-17T03:25:56.811Z,59.21
2022-10-17T03:28:25.238Z,59.19
2022-10-17T03:30:53.630Z,59.40
2022-10-17T03:33:21.617Z,59.61
2022-10-17T03:38:24.303Z,59.47
2022-10-17T03:40:56.621Z,59.51
2022-10-17T03:43:24.821Z,59.66
2022-10-17T03:45:52.793Z,59.72
2022-10-17T03:48:20.954Z,59.87
2022-10-17T03:50:49.227Z,60.02
2022-10-17T03:53:17.514Z,60.14
2022-10-17T03:55:46.858Z,60.26
2022-10-17T03:58:14.862Z,60.47
2022-10-17T04:00:42.878Z,60.41
2022-10-17T04:03:16.269Z,60.66
2022-10-17T04:05:45.526Z,60.70
2022-10-17T04:08:13.554Z,60.70
2022-10-17T04:11:20.025Z,60.54
2022-10-17T04:13:53.372Z,60.59
2022-10-17T04:16:22.038Z,60.69
2022-10-17T04:19:00.360Z,60.62
2022-10-17T04:21:32.088Z,60.56
2022-10-17T04:24:05.622Z,60.43
2022-10-17T04:26:54.776Z,60.50
2022-10-17T04:29:26.557Z,60.64
2022-10-17T04:32:02.463Z,60.72
2022-10-17T04:34:40.341Z,61.20
2022-10-17T04:37:08.574Z,61.35
2022-10-17T04:39:37.518Z,61.67
2022-10-17T04:42:07.037Z,61.73
2022-10-17T04:44:35.846Z,62.02
2022-10-17T04:47:03.978Z,62.02
2022-10-17T04:49:32.263Z,62.12
2022-10-17T04:52:08.447Z,62.37
2022-10-17T04:54:43.594Z,62.33
2022-10-17T04:57:15.589Z,62.53
2022-10-17T04:59:51.168Z,62.63
2022-10-17T05:02:47.510Z,62.61
2022-10-17T05:05:16.317Z,62.39
2022-10-17T05:07:46.632Z,62.41
2022-10-17T05:10:19.250Z,62.49
2022-10-17T05:12:52.070Z,62.61
2022-10-17T05:15:23.177Z,62.75
2022-10-17T05:17:56.570Z,62.50
2022-10-17T05:20:26.219Z,62.44
2022-10-17T05:22:54.784Z,62.46
2022-10-17T05:25:24.332Z,62.30
2022-10-17T05:27:54.329Z,62.40
2022-10-17T05:30:22.398Z,62.40
2022-10-17T05:32:55.603Z,62.26
2022-10-17T05:35:24.145Z,62.34
2022-10-17T05:37:53.087Z,62.15
2022-10-17T05:40:22.213Z,62.55
2022-10-17T05:42:54.681Z,62.86
2022-10-17T05:45:23.650Z,62.74
2022-10-17T05:47:51.985Z,62.53
2022-10-17T05:50:21.570Z,62.43
2022-10-17T05:53:04.406Z,62.47
2022-10-17T05:55:36.536Z,62.53
2022-10-17T05:58:06.010Z,62.72
2022-10-17T06:00:38.358Z,62.64
2022-10-17T06:03:06.508Z,62.54
2022-10-17T06:05:36.697Z,62.54
2022-10-17T06:08:04.893Z,62.60
2022-10-17T06:10:36.229Z,62.39
2022-10-17T06:13:06.221Z,62.34
2022-10-17T06:15:34.370Z,62.38
2022-10-17T06:18:06.829Z,62.40
2022-10-17T06:20:34.880Z,62.64
2022-10-17T06:23:03.606Z,62.66
2022-10-17T06:25:46.069Z,62.64
2022-10-17T06:28:15.506Z,62.56
2022-10-17T06:30:43.678Z,62.72
2022-10-17T06:33:12.714Z,62.63
2022-10-17T06:35:40.722Z,62.59
2022-10-17T06:38:08.815Z,62.63
2022-10-17T06:40:38.141Z,62.59
2022-10-17T06:43:06.180Z,62.63
2022-10-17T06:46:11.075Z,62.80
2022-10-17T06:48:42.725Z,62.86
2022-10-17T06:51:29.774Z,62.98
2022-10-17T06:54:00.117Z,63.04
2022-10-17T06:56:48.436Z,63.08
2022-10-17T06:59:36.685Z,63.13
2022-10-17T07:02:13.300Z,63.10
2022-10-17T07:04:41.413Z,63.31
2022-10-17T07:07:09.523Z,63.41
2022-10-17T07:09:37.830Z,63.15
2022-10-17T07:12:08.411Z,63.11
2022-10-17T07:14:36.605Z,63.04
2022-10-17T07:17:05.056Z,62.82
2022-10-17T07:19:35.539Z,62.61
2022-10-17T07:22:05.206Z,62.56
2022-10-17T07:24:34.370Z,62.32
2022-10-17T07:27:15.347Z,62.40
2022-10-17T07:29:43.362Z,62.29
2022-10-17T07:32:18.180Z,61.71
2022-10-17T07:34:47.583Z,61.79
2022-10-17T07:37:16.365Z,61.58
2022-10-17T07:39:50.566Z,61.53
2022-10-17T07:42:18.668Z,61.54
2022-10-17T07:44:47.528Z,61.37
2022-10-17T07:47:15.795Z,61.25
2022-10-17T07:49:45.297Z,60.87
2022-10-17T07:52:15.981Z,60.64
2022-10-17T07:54:44.837Z,60.62
2022-10-17T07:57:12.883Z,60.31
2022-10-17T07:59:41.057Z,60.41
2022-10-17T08:02:22.963Z,60.44
2022-10-17T08:04:51.064Z,60.11
2022-10-17T08:07:24.347Z,60.18
2022-10-17T08:09:56.591Z,60.06
2022-10-17T08:12:26.012Z,60.31
2022-10-17T08:14:54.094Z,59.98
2022-10-17T08:17:22.771Z,59.90
2022-10-17T08:19:50.741Z,59.93
2022-10-17T08:22:20.198Z,60.05
2022-10-17T08:24:48.173Z,59.19
2022-10-17T08:27:21.470Z,58.97
2022-10-17T08:29:52.765Z,58.90
2022-10-17T08:32:21.574Z,58.99
2022-10-17T08:34:49.671Z,59.10
2022-10-17T08:37:17.668Z,58.88
2022-10-17T08:39:47.079Z,58.96
2022-10-17T08:42:32.027Z,58.44
2022-10-17T08:45:09.315Z,57.89
2022-10-17T08:47:40.041Z,57.23
2022-10-17T08:50:13.034Z,57.07
2022-10-17T08:52:43.759Z,56.97
2022-10-17T08:57:50.649Z,56.76
2022-10-17T09:00:20.493Z,56.77
2022-10-17T09:03:03.920Z,56.72
2022-10-17T09:05:42.506Z,56.88
2022-10-17T09:08:21.903Z,57.20
2022-10-17T09:10:59.232Z,57.10
2022-10-17T09:13:45.034Z,57.18
2022-10-17T09:16:33.466Z,57.11
2022-10-17T09:19:08.638Z,57.19
2022-10-17T09:21:44.407Z,57.26
2022-10-17T09:24:19.006Z,57.08
2022-10-17T09:26:48.582Z,57.35
2022-10-17T09:29:21.237Z,57.37
2022-10-17T09:34:32.518Z,57.04
2022-10-17T09:37:01.946Z,57.06
2022-10-17T09:39:31.999Z,57.15
2022-10-17T09:42:02.817Z,57.08
2022-10-17T09:44:33.324Z,57.02
2022-10-17T09:47:15.158Z,56.92
2022-10-17T09:49:45.392Z,57.17
2022-10-17T09:52:17.306Z,57.35
2022-10-17T09:54:48.122Z,57.55
2022-10-17T09:57:19.057Z,57.55
2022-10-17T09:59:48.860Z,57.77
2022-10-17T10:02:22.402Z,57.60
2022-10-17T10:05:10.306Z,57.76
2022-10-17T10:07:40.383Z,57.85
2022-10-17T10:10:27.633Z,57.77
2022-10-17T10:13:17.353Z,57.55
2022-10-17T10:15:47.660Z,57.48
2022-10-17T10:18:32.160Z,57.32
2022-10-17T10:21:10.688Z,57.25
2022-10-17T10:23:40.493Z,57.53
2022-10-17T10:26:22.677Z,57.40
2022-10-17T10:29:01.294Z,57.39
2022-10-17T10:31:40.653Z,57.39
2022-10-17T10:34:20.666Z,57.29
2022-10-17T10:36:59.023Z,57.19
2022-10-17T10:39:46.950Z,57.20
2022-10-17T10:42:23.103Z,57.10
2022-10-17T10:44:53.899Z,57.13
2022-10-17T10:47:26.129Z,57.34
2022-10-17T10:50:09.883Z,57.41
2022-10-17T10:52:43.607Z,57.75
2022-10-17T10:55:25.185Z,57.53
2022-10-17T10:57:57.915Z,58.15
2022-10-17T11:00:30.269Z,58.51
2022-10-17T11:03:04.313Z,58.87
2022-10-17T11:05:42.122Z,58.96
2022-10-17T11:08:21.325Z,59.12
2022-10-17T11:11:01.022Z,59.38
2022-10-17T11:13:35.040Z,59.69
2022-10-17T11:16:22.513Z,59.72
2022-10-17T11:18:54.526Z,60.19
2022-10-17T11:21:33.788Z,60.20
2022-10-17T11:24:09.276Z,60.39
2022-10-17T11:26:45.565Z,60.33
2022-10-17T11:29:14.629Z,60.61
2022-10-17T11:31:51.795Z,60.60
2022-10-17T11:34:26.132Z,60.64
2022-10-17T11:36:57.843Z,60.75
2022-10-17T11:39:31.196Z,60.76
2022-10-17T11:42:06.715Z,61.05
2022-10-17T11:44:37.577Z,60.99
2022-10-17T11:47:14.627Z,61.21
2022-10-17T11:49:49.929Z,61.42
2022-10-17T11:52:51.889Z,61.31
2022-10-17T11:55:21.596Z,61.56
2022-10-17T11:57:58.486Z,61.63
2022-10-17T12:00:39.187Z,61.67
2022-10-17T12:03:27.706Z,61.71
2022-10-17T12:06:00.960Z,62.03
2022-10-17T12:08:34.761Z,61.87
2022-10-17T12:11:07.316Z,61.92
2022-10-17T12:13:53.470Z,61.73
2022-10-17T12:16:46.841Z,61.78
2022-10-17T12:19:38.446Z,62.04
2022-10-17T12:22:22.013Z,62.34
2022-10-17T12:25:01.531Z,62.49
2022-10-17T12:27:42.541Z,62.62
2022-10-17T12:30:25.061Z,62.64
2022-10-17T12:33:22.179Z,62.65
2022-10-17T12:35:53.199Z,63.01
2022-10-17T12:38:24.438Z,63.26
2022-10-17T12:41:00.531Z,63.17
2022-10-17T12:43:57.904Z,63.11
2022-10-17T12:46:51.069Z,63.31
2022-10-17T12:49:51.988Z,63.35
2022-10-17T12:52:49.355Z,63.32
2022-10-17T12:55:18.963Z,63.52
2022-10-17T12:57:58.239Z,63.44
2022-10-17T13:00:34.380Z,63.89
2022-10-17T13:03:11.778Z,64.37
2022-10-17T13:05:43.335Z,64.56
2022-10-17T13:08:19.043Z,64.56
2022-10-17T13:10:52.397Z,64.96
2022-10-17T13:13:23.017Z,64.88
2022-10-17T13:15:53.397Z,64.91
2022-10-17T13:18:24.455Z,64.85
2022-10-17T13:21:01.008Z,64.66
2022-10-17T13:23:33.976Z,64.52
2022-10-17T13:26:07.727Z,64.34
2022-10-17T13:28:39.407Z,64.40
2022-10-17T13:31:08.209Z,64.34
2022-10-17T13:33:39.251Z,64.05
2022-10-17T13:36:10.291Z,63.99
2022-10-17T13:38:41.858Z,63.91
2022-10-17T13:44:04.812Z,63.60
2022-10-17T13:46:39.301Z,63.41
2022-10-17T13:49:14.074Z,63.23
2022-10-17T13:51:45.949Z,63.24
2022-10-17T13:54:41.125Z,63.21
2022-10-17T13:57:21.502Z,63.37
2022-10-17T13:59:51.910Z,63.49
2022-10-17T14:02:22.377Z,63.46
2022-10-17T14:05:18.593Z,63.13
2022-10-17T14:08:11.460Z,63.15
2022-10-17T14:10:42.924Z,63.21
2022-10-17T14:13:22.046Z,63.18
2022-10-17T14:15:51.139Z,63.53
2022-10-17T14:18:22.705Z,63.74
2022-10-17T14:23:42.008Z,64.01
2022-10-17T14:26:15.159Z,64.27
2022-10-17T14:28:45.120Z,64.21
2022-10-17T14:31:30.941Z,64.14
2022-10-17T14:34:00.952Z,64.46
2022-10-17T14:36:35.214Z,64.49
2022-10-17T14:39:08.489Z,64.52
2022-10-17T14:41:44.689Z,64.33
2022-10-17T14:44:21.954Z,63.66
2022-10-17T14:46:54.610Z,64.01
2022-10-17T14:49:34.078Z,63.84
2022-10-17T14:52:27.393Z,64.12
2022-10-17T14:54:55.825Z,64.24
2022-10-17T14:57:28.647Z,64.23
2022-10-17T14:59:57.608Z,64.32
2022-10-17T15:02:26.298Z,64.44
2022-10-17T15:04:54.979Z,64.36
2022-10-17T15:07:23.760Z,64.42
2022-10-17T15:09:53.709Z,64.60
2022-10-17T15:12:24.990Z,64.56
2022-10-17T15:14:55.166Z,64.72
2022-10-17T15:17:25.905Z,64.56
2022-10-17T15:19:54.605Z,64.64
2022-10-17T15:22:22.887Z,64.59
2022-10-17T15:24:50.981Z,64.46
2022-10-17T15:27:21.013Z,64.28
2022-10-17T15:29:49.670Z,63.98
2022-10-17T15:32:19.080Z,64.30
2022-10-17T15:34:47.506Z,64.36
2022-10-17T15:37:20.817Z,64.34
2022-10-17T15:39:53.412Z,64.08
2022-10-17T15:42:23.850Z,64.30
2022-10-17T15:44:51.893Z,64.19
2022-10-17T15:47:25.757Z,63.63
2022-10-17T15:49:54.547Z,63.79
2022-10-17T15:52:23.132Z,63.97
2022-10-17T15:54:51.289Z,63.94
2022-10-17T15:57:21.454Z,63.98
2022-10-17T15:59:50.337Z,63.83
2022-10-17T16:02:20.251Z,64.08
2022-10-17T16:04:50.622Z,64.13
2022-10-17T16:07:19.463Z,64.12
2022-10-17T16:09:47.829Z,63.85
2022-10-17T16:12:19.326Z,63.73
2022-10-17T16:14:47.496Z,63.57
2022-10-17T16:17:16.325Z,63.60
2022-10-17T16:19:45.008Z,63.58
2022-10-17T16:22:36.514Z,63.15
2022-10-17T16:25:10.013Z,63.15
2022-10-17T16:27:38.870Z,62.82
2022-10-17T16:30:08.870Z,63.15
2022-10-17T16:32:36.932Z,63.36
2022-10-17T16:35:05.410Z,63.46
2022-10-17T16:37:35.842Z,63.53
2022-10-17T16:40:04.471Z,63.60
2022-10-17T16:42:32.854Z,63.27
2022-10-17T16:45:01.110Z,63.15
2022-10-17T16:47:29.098Z,63.05
2022-10-17T16:49:57.518Z,63.18
2022-10-17T16:52:25.601Z,63.45
2022-10-17T16:54:54.982Z,63.50
2022-10-17T16:57:23.066Z,63.50
2022-10-17T16:59:51.050Z,63.36
2022-10-17T17:02:21.275Z,63.53
2022-10-17T17:04:49.711Z,63.49
2022-10-17T17:07:18.672Z,63.41
2022-10-17T17:09:46.682Z,63.38
2022-10-17T17:12:16.209Z,63.50
2022-10-17T17:14:44.403Z,63.66
2022-10-17T17:17:19.633Z,63.79
2022-10-17T17:19:58.509Z,63.92
2022-10-17T17:22:26.607Z,63.98
2022-10-17T17:24:54.587Z,64.05
2022-10-17T17:27:25.153Z,63.87
2022-10-17T17:29:53.412Z,63.85
2022-10-17T17:32:21.694Z,63.95
2022-10-17T17:34:49.692Z,64.00
2022-10-17T17:37:17.689Z,63.67
2022-10-17T17:39:45.679Z,63.98
2022-10-17T17:42:13.682Z,64.15
2022-10-17T17:44:43.045Z,64.34
2022-10-17T17:47:11.070Z,64.40
2022-10-17T17:49:39.142Z,64.50
2022-10-17T17:52:07.322Z,64.56
2022-10-17T17:54:38.543Z,64.60
2022-10-17T17:57:08.868Z,64.68
2022-10-17T17:59:37.028Z,64.82
2022-10-17T18:02:06.986Z,64.77
2022-10-17T18:04:35.158Z,64.69
2022-10-17T18:07:03.161Z,64.76
2022-10-17T18:09:31.187Z,64.74
2022-10-17T18:11:59.157Z,64.50
2022-10-17T18:14:27.320Z,64.12
2022-10-17T18:16:55.298Z,64.01
2022-10-17T18:19:24.705Z,64.00
2022-10-17T18:21:52.749Z,64.05
2022-10-17T18:24:20.734Z,64.41
2022-10-17T18:26:48.905Z,64.27
2022-10-17T18:29:17.055Z,64.34
2022-10-17T18:31:45.175Z,64.38
2022-10-17T18:34:13.189Z,64.33
2022-10-17T18:36:42.585Z,64.56
2022-10-17T18:39:10.627Z,64.44
2022-10-17T18:41:38.663Z,64.41
2022-10-17T18:44:06.625Z,64.42
2022-10-17T18:46:40.710Z,64.59
2022-10-17T18:49:10.186Z,64.67
2022-10-17T18:51:38.392Z,64.69
2022-10-17T18:54:12.467Z,64.47
2022-10-17T18:56:40.543Z,64.59
2022-10-17T18:59:08.522Z,64.59
2022-10-17T19:01:36.702Z,64.60
2022-10-17T19:04:05.065Z,64.56
2022-10-17T19:06:33.407Z,64.56
2022-10-17T19:09:03.065Z,64.55
2022-10-17T19:11:33.825Z,64.49
2022-10-17T19:14:03.842Z,64.43
2022-10-17T19:16:34.273Z,64.37
2022-10-17T19:19:04.709Z,64.33
2022-10-17T19:21:33.102Z,64.30
2022-10-17T19:24:03.398Z,64.36
2022-10-17T19:26:35.048Z,64.21
2022-10-17T19:29:03.545Z,64.09
2022-10-17T19:31:33.149Z,64.07
2022-10-17T19:34:01.574Z,64.17
2022-10-17T19:36:33.630Z,64.11
2022-10-17T19:39:02.552Z,64.12
2022-10-17T19:41:32.256Z,64.02
2022-10-17T19:44:01.352Z,64.08
2022-10-17T19:46:30.971Z,64.04
2022-10-17T19:48:59.167Z,64.05
2022-10-17T19:51:29.043Z,64.14
2022-10-17T19:54:00.365Z,64.33
2022-10-17T19:56:30.110Z,64.43
2022-10-17T19:59:00.228Z,64.39
2022-10-17T20:01:36.228Z,64.14
2022-10-17T20:04:04.359Z,64.33
2022-10-17T20:06:34.131Z,64.41
2022-10-17T20:09:02.510Z,64.64
2022-10-17T20:11:30.849Z,64.66
2022-10-17T20:14:01.775Z,64.63
2022-10-17T20:16:31.995Z,64.79
2022-10-17T20:19:05.454Z,64.79
2022-10-17T20:21:35.125Z,64.72
2022-10-17T20:24:04.889Z,64.76
2022-10-17T20:26:38.022Z,64.76
2022-10-17T20:29:10.999Z,64.63
2022-10-17T20:31:40.384Z,64.56
2022-10-17T20:34:08.446Z,64.74
2022-10-17T20:36:37.516Z,64.72
2022-10-17T20:39:07.232Z,64.69
2022-10-17T20:41:35.765Z,64.64
2022-10-17T20:44:04.208Z,64.74
2022-10-17T20:46:38.344Z,64.69
2022-10-17T20:49:11.972Z,64.66
2022-10-17T20:51:40.034Z,64.66
2022-10-17T20:54:08.122Z,64.60
2022-10-17T20:56:37.254Z,64.66
2022-10-17T20:59:08.155Z,64.75
2022-10-17T21:01:37.678Z,64.77
2022-10-17T21:04:33.279Z,64.80
2022-10-17T21:06:54.118Z,64.82
2022-10-17T21:09:22.980Z,64.76
2022-10-17T21:11:55.229Z,64.56
2022-10-17T21:14:24.289Z,64.62
2022-10-17T21:16:53.900Z,64.63
2022-10-17T21:19:22.744Z,64.44
2022-10-17T21:21:51.330Z,64.30
2022-10-17T21:24:20.857Z,64.52
2022-10-17T21:26:55.519Z,64.59
2022-10-17T21:29:24.597Z,64.75
2022-10-17T21:31:54.082Z,64.68
2022-10-17T21:34:24.547Z,64.73
2022-10-17T21:36:53.225Z,64.69
2022-10-17T21:39:21.854Z,64.69
2022-10-17T21:41:49.976Z,64.62
2022-10-17T21:44:19.925Z,64.59
2022-10-17T21:46:48.383Z,64.59
2022-10-17T21:49:19.669Z,64.61
2022-10-17T21:51:48.620Z,64.68
2022-10-17T21:54:17.751Z,64.71
2022-10-17T21:56:46.255Z,64.77
2022-10-17T21:59:14.397Z,64.89
2022-10-17T22:01:44.069Z,65.01
2022-10-17T22:04:16.319Z,64.85
2022-10-17T22:06:47.218Z,64.78
2022-10-17T22:09:21.042Z,64.78
2022-10-17T22:11:52.177Z,64.62
2022-10-17T22:14:22.643Z,64.79
2022-10-17T22:16:51.455Z,64.85
2022-10-17T22:19:21.632Z,64.79
2022-10-17T22:21:51.216Z,64.94
2022-10-17T22:26:49.832Z,65.01
2022-10-17T22:29:18.329Z,64.95
2022-10-17T22:31:46.347Z,64.88
2022-10-17T22:34:16.262Z,64.91
2022-10-17T22:36:44.685Z,64.76
2022-10-17T22:39:14.042Z,64.65
2022-10-17T22:41:42.037Z,64.47
2022-10-17T22:44:10.297Z,64.32
2022-10-17T22:46:38.339Z,64.31
2022-10-17T22:49:06.359Z,64.35
2022-10-17T22:51:34.363Z,64.24
2022-10-17T22:54:02.405Z,64.09
2022-10-17T22:56:31.792Z,64.12
2022-10-17T22:58:59.776Z,64.13
2022-10-17T23:01:27.820Z,64.43
2022-10-17T23:03:55.898Z,64.25
2022-10-17T23:06:24.141Z,64.01
2022-10-17T23:08:52.202Z,64.06
2022-10-17T23:11:20.871Z,64.10
2022-10-17T23:13:50.485Z,64.14
2022-10-17T23:16:18.588Z,64.25
2022-10-17T23:18:46.630Z,64.34
2022-10-17T23:21:14.746Z,64.24
2022-10-17T23:23:42.801Z,64.18
2022-10-17T23:26:12.840Z,64.13
2022-10-17T23:28:41.723Z,64.32
2022-10-17T23:31:13.065Z,64.21
2022-10-17T23:33:41.509Z,64.26
2022-10-17T23:36:10.764Z,64.29
2022-10-17T23:38:39.072Z,64.19
2022-10-17T23:41:07.347Z,64.17
2022-10-17T23:43:35.913Z,64.06
2022-10-17T23:46:04.826Z,64.18
2022-10-17T23:48:34.291Z,64.24
2022-10-17T23:51:02.482Z,64.24
2022-10-17T23:53:30.517Z,64.34
2022-10-17T23:55:58.553Z,64.22
2022-10-17T23:58:26.578Z,64.37
